Time;durP1;ratioP1;P1;durP2;ratioP2;P2;SDS_P1;SDS_P2;PMS_P1;PMS_P2;Temp;Humidity;BMP_temperature;BMP_pressure;BME280_temperature;BME280_humidity;BME280_pressure;Samples;Min_cycle;Max_cycle;Signal;HPM_P1;HPM_P2
2021/11/20 00:01:11;;;;;;;;;15.75;15.50;;;;;11.93;64.75;102540.00;5001721;28;45312;-48
2021/11/20 00:03:39;;;;;;;;;17.75;15.75;;;;;11.92;64.64;102526.81;5002383;28;45265;-46
2021/11/20 00:06:05;;;;;;;;;19.25;19.00;;;;;11.93;64.63;102528.59;5001715;28;45313;-46
2021/11/20 00:08:31;;;;;;;;;14.75;12.25;;;;;11.91;64.72;102527.69;5002139;28;45319;-50
2021/11/20 00:10:59;;;;;;;;;10.50;10.50;;;;;11.92;64.82;102529.44;5001509;28;46028;-46
2021/11/20 00:13:26;;;;;;;;;14.00;13.50;;;;;11.90;64.79;102518.00;5002045;28;45364;-47
2021/11/20 00:15:54;;;;;;;;;17.25;13.75;;;;;11.90;64.62;102516.28;5000515;28;45374;-49
2021/11/20 00:18:21;;;;;;;;;17.00;14.50;;;;;11.89;64.73;102506.59;5001886;28;45412;-45
2021/11/20 00:20:53;;;;;;;;;16.00;12.50;;;;;11.87;64.84;102513.59;5001192;28;45320;-48
2021/11/20 00:23:23;;;;;;;;;18.00;14.25;;;;;11.84;64.90;102517.09;5000382;28;45392;-47
2021/11/20 00:25:51;;;;;;;;;17.75;16.75;;;;;11.83;64.87;102509.19;5001467;28;45324;-44
2021/11/20 00:28:28;;;;;;;;;19.25;14.75;;;;;11.81;64.98;102498.63;5001630;28;45276;-45
2021/11/20 00:30:55;;;;;;;;;17.75;17.00;;;;;11.78;64.93;102493.31;5001437;28;45284;-47
2021/11/20 00:33:29;;;;;;;;;13.50;13.00;;;;;11.81;65.12;102492.47;5001506;28;45472;-46
2021/11/20 00:35:56;;;;;;;;;18.75;17.75;;;;;11.81;64.98;102492.47;5001455;28;45482;-47
2021/11/20 00:38:22;;;;;;;;;14.25;14.25;;;;;11.80;64.98;102496.00;5001325;28;45334;-45
2021/11/20 00:40:56;;;;;;;;;21.75;16.75;;;;;11.79;65.10;102502.13;5001262;28;46118;-48
2021/11/20 00:43:22;;;;;;;;;19.75;15.50;;;;;11.78;64.92;102495.09;5000808;28;45409;-48
2021/11/20 00:45:48;;;;;;;;;18.25;18.25;;;;;11.77;65.15;102496.81;5000363;28;45363;-46
2021/11/20 00:48:16;;;;;;;;;20.50;18.00;;;;;11.78;65.06;102503.00;5001237;28;45669;-46
2021/11/20 00:50:45;;;;;;;;;18.25;14.75;;;;;11.78;65.05;102492.47;5000994;28;46067;-48
2021/11/20 00:53:13;;;;;;;;;22.75;21.50;;;;;11.78;64.82;102489.81;5001149;28;45315;-46
2021/11/20 00:55:38;;;;;;;;;25.25;22.00;;;;;11.74;64.92;102481.00;5001202;28;45470;-44
2021/11/20 00:58:05;;;;;;;;;22.50;22.50;;;;;11.75;65.02;102477.50;5001156;28;45574;-47
2021/11/20 01:00:48;;;;;;;;;25.25;18.25;;;;;11.75;64.99;102488.03;5001225;28;46228;-47
2021/11/20 01:03:15;;;;;;;;;24.00;20.75;;;;;11.75;65.17;102477.50;5001324;28;45503;-48
2021/11/20 01:05:42;;;;;;;;;26.00;20.75;;;;;11.74;65.23;102474.88;4999690;28;45357;-47
2021/11/20 01:08:11;;;;;;;;;21.75;19.00;;;;;11.74;65.11;102478.38;5001137;28;45178;-46
2021/11/20 01:10:39;;;;;;;;;20.00;19.00;;;;;11.74;65.12;102472.25;5000721;28;47206;-46
2021/11/20 01:13:06;;;;;;;;;18.50;16.75;;;;;11.73;65.06;102468.69;5001058;28;45283;-45
2021/11/20 01:15:46;;;;;;;;;22.00;19.25;;;;;11.74;65.15;102467.84;4999762;28;45218;-44
2021/11/20 01:18:13;;;;;;;;;22.75;22.25;;;;;11.73;65.02;102467.84;5001114;28;45284;-44
2021/11/20 01:20:39;;;;;;;;;18.00;17.25;;;;;11.73;65.16;102465.19;5000430;28;46395;-47
2021/11/20 01:23:05;;;;;;;;;24.00;22.75;;;;;11.71;65.26;102458.16;5000941;28;45427;-45
2021/11/20 01:25:32;;;;;;;;;17.00;17.00;;;;;11.72;65.28;102459.03;4999184;28;45516;-47
2021/11/20 01:27:58;;;;;;;;;22.75;20.00;;;;;11.72;65.20;102464.28;5000941;28;45256;-45
2021/11/20 01:30:23;;;;;;;;;27.75;23.50;;;;;11.72;65.24;102451.13;5000333;28;45253;-44
2021/11/20 01:32:49;;;;;;;;;21.00;17.75;;;;;11.71;65.23;102458.16;4999442;28;45406;-45
2021/11/20 01:35:16;;;;;;;;;20.75;18.75;;;;;11.66;65.29;102451.97;5000729;28;45501;-45
2021/11/20 01:37:42;;;;;;;;;18.25;16.25;;;;;11.58;65.16;102443.13;5000646;28;45474;-49
2021/11/20 01:40:11;;;;;;;;;20.75;19.50;;;;;11.65;65.34;102454.59;4995782;28;47071;-45
2021/11/20 01:42:37;;;;;;;;;24.25;19.00;;;;;11.65;65.38;102454.59;4991926;28;45318;-44
2021/11/20 01:45:09;;;;;;;;;21.75;18.25;;;;;11.60;65.29;102453.69;5000471;28;45260;-47
2021/11/20 01:48:14;;;;;;;;;20.75;16.50;;;;;11.59;65.41;102452.78;5000609;28;45283;-47
2021/11/20 01:50:43;;;;;;;;;20.50;19.25;;;;;11.57;65.25;102443.97;4991375;28;46144;-48
2021/11/20 01:53:35;;;;;;;;;20.50;18.50;;;;;11.58;65.28;102439.63;4999905;28;45240;-46
2021/11/20 01:56:10;;;;;;;;;20.25;18.75;;;;;11.55;65.64;102432.56;5000156;28;45185;-49
2021/11/20 01:59:13;;;;;;;;;21.25;17.25;;;;;11.54;65.37;102441.34;5000492;28;45244;-46
2021/11/20 02:01:50;;;;;;;;;17.75;16.50;;;;;11.49;65.28;102436.00;4988941;28;45357;-45
2021/11/20 02:04:24;;;;;;;;;22.75;19.25;;;;;11.49;65.36;102443.03;5000198;28;45380;-45
2021/11/20 02:07:10;;;;;;;;;18.50;16.00;;;;;11.47;65.49;102434.25;4998965;28;45288;-45
2021/11/20 02:09:42;;;;;;;;;21.75;17.75;;;;;11.44;65.42;102428.97;4998837;28;45197;-45
2021/11/20 02:12:14;;;;;;;;;20.00;19.00;;;;;11.42;65.47;102426.31;4999955;28;46351;-44
2021/11/20 02:14:41;;;;;;;;;17.75;16.25;;;;;11.42;65.48;102431.59;5015379;28;45350;-46
2021/11/20 02:17:16;;;;;;;;;20.00;16.25;;;;;11.41;65.34;102424.56;4998970;28;45318;-45
2021/11/20 02:19:45;;;;;;;;;18.25;17.25;;;;;11.38;65.38;102428.03;5000230;28;45471;-45
2021/11/20 02:22:34;;;;;;;;;20.50;16.50;;;;;11.38;65.41;102435.94;4999493;28;45349;-45
2021/11/20 02:24:59;;;;;;;;;21.25;18.00;;;;;11.36;65.34;102428.91;4998125;28;45296;-45
2021/11/20 02:27:25;;;;;;;;;24.00;20.00;;;;;11.34;65.39;102430.63;4999874;28;45582;-48
2021/11/20 02:29:50;;;;;;;;;15.50;15.25;;;;;11.34;65.38;102431.50;5000148;28;45359;-46
2021/11/20 02:32:22;;;;;;;;;18.50;15.00;;;;;11.31;65.38;102428.84;4999800;28;46132;-47
2021/11/20 02:34:50;;;;;;;;;19.25;17.00;;;;;11.30;65.41;102423.56;4999822;28;45256;-45
2021/11/20 02:37:16;;;;;;;;;16.50;13.00;;;;;11.28;65.50;102425.28;4998555;28;45434;-45
2021/11/20 02:39:43;;;;;;;;;15.25;12.75;;;;;11.28;65.36;102420.94;4999743;28;45408;-46
2021/11/20 02:42:13;;;;;;;;;18.00;14.75;;;;;11.26;65.49;102413.84;4999650;28;46616;-45
2021/11/20 02:44:39;;;;;;;;;17.25;12.25;;;;;11.25;65.54;102410.34;4999718;28;45277;-46
2021/11/20 02:47:17;;;;;;;;;17.25;16.00;;;;;11.25;65.38;102406.84;4998640;28;45330;-46
2021/11/20 02:49:43;;;;;;;;;7.25;7.00;;;;;11.24;65.38;102398.06;5014833;28;45324;-45
2021/11/20 02:52:10;;;;;;;;;15.75;13.25;;;;;11.23;65.29;102398.91;4999589;28;45304;-46
2021/11/20 02:54:36;;;;;;;;;10.75;8.50;;;;;11.24;65.41;102403.31;4999596;28;45170;-46
2021/11/20 02:57:10;;;;;;;;;9.50;9.25;;;;;11.23;65.37;102398.91;4998428;28;45317;-48
2021/11/20 02:59:36;;;;;;;;;15.25;14.25;;;;;11.22;65.43;102394.56;4999385;28;45533;-46
2021/11/20 03:02:03;;;;;;;;;16.50;10.50;;;;;11.24;65.25;102391.94;4998024;28;46139;-45
2021/11/20 03:04:29;;;;;;;;;9.50;9.50;;;;;11.25;65.27;102391.94;4999387;28;45183;-49
2021/11/20 03:06:55;;;;;;;;;17.75;15.75;;;;;11.24;65.32;102387.53;5002624;28;45362;-46
2021/11/20 03:09:25;;;;;;;;;11.25;8.25;;;;;11.25;65.39;102386.66;4998394;28;46043;-45
2021/11/20 03:11:51;;;;;;;;;7.75;7.75;;;;;11.24;65.40;102379.63;4996314;28;45607;-47
2021/11/20 03:14:18;;;;;;;;;11.00;10.00;;;;;11.25;65.38;102385.81;5002964;28;45158;-46
2021/11/20 03:16:51;;;;;;;;;12.50;12.00;;;;;11.25;65.41;102375.28;5001798;28;45233;-46
2021/11/20 03:19:18;;;;;;;;;12.75;9.75;;;;;11.23;65.33;102367.34;5002811;28;45286;-46
2021/11/20 03:21:48;;;;;;;;;15.25;10.00;;;;;11.24;65.42;102366.47;5001478;28;45323;-45
2021/11/20 03:24:16;;;;;;;;;10.50;10.25;;;;;11.24;65.41;102363.84;4989963;28;45475;-47
2021/11/20 03:26:42;;;;;;;;;10.75;9.25;;;;;11.22;65.61;102348.06;5001422;28;45270;-45
2021/11/20 03:29:08;;;;;;;;;14.50;11.00;;;;;11.24;65.38;102353.31;5002748;28;45566;-46
2021/11/20 03:31:35;;;;;;;;;9.50;9.00;;;;;11.22;65.35;102348.06;5001204;28;45308;-46
2021/11/20 03:34:01;;;;;;;;;17.50;15.00;;;;;11.22;65.36;102344.56;5001378;28;45427;-45
2021/11/20 03:36:26;;;;;;;;;7.50;7.00;;;;;11.24;65.37;102347.19;5002313;28;45468;-45
2021/11/20 03:38:52;;;;;;;;;9.50;9.50;;;;;11.23;65.46;102346.28;5001179;28;45593;-46
2021/11/20 03:41:17;;;;;;;;;7.75;7.75;;;;;11.22;65.51;102334.03;5002484;28;46048;-46
2021/11/20 03:43:45;;;;;;;;;8.75;7.25;;;;;11.21;65.54;102334.88;5017871;28;45446;-46
2021/11/20 03:46:11;;;;;;;;;5.75;4.25;;;;;11.18;65.55;102334.84;5017844;28;45188;-45
2021/11/20 03:48:36;;;;;;;;;6.00;4.75;;;;;11.18;65.55;102330.47;5001186;28;45566;-46
2021/11/20 03:51:03;;;;;;;;;4.50;2.00;;;;;11.17;65.69;102328.72;5017211;28;46036;-53
2021/11/20 03:53:30;;;;;;;;;4.00;2.75;;;;;11.15;65.61;102327.81;4997826;28;45435;-45
2021/11/20 03:55:56;;;;;;;;;1.75;1.75;;;;;11.12;65.42;102316.38;4996555;28;45398;-44
2021/11/20 03:58:22;;;;;;;;;2.25;1.25;;;;;11.10;65.38;102313.72;5001045;28;45260;-44
2021/11/20 04:00:52;;;;;;;;;3.00;2.50;;;;;11.10;65.46;102311.09;5001817;28;45985;-49
2021/11/20 04:03:20;;;;;;;;;2.25;2.25;;;;;11.07;65.68;102305.84;5002308;28;45233;-49
2021/11/20 04:05:50;;;;;;;;;1.25;1.25;;;;;11.09;65.46;102314.59;5001933;28;45355;-45
2021/11/20 04:08:15;;;;;;;;;2.50;2.50;;;;;11.06;65.19;102306.69;5002134;28;45220;-47
2021/11/20 04:10:41;;;;;;;;;2.00;2.00;;;;;11.05;65.38;102316.31;4999535;28;47186;-44
2021/11/20 04:13:06;;;;;;;;;3.00;3.00;;;;;11.06;65.26;102304.94;5002194;28;45259;-45
2021/11/20 04:15:32;;;;;;;;;4.00;3.75;;;;;11.05;65.27;102300.53;4999755;28;45390;-44
2021/11/20 04:17:58;;;;;;;;;2.00;2.00;;;;;11.06;65.14;102297.03;5001336;28;45578;-44
2021/11/20 04:20:24;;;;;;;;;4.50;3.25;;;;;11.05;65.13;102300.53;5001629;28;45240;-47
2021/11/20 04:22:50;;;;;;;;;2.50;2.25;;;;;11.02;65.40;102294.38;5002043;28;45308;-46
2021/11/20 04:25:19;;;;;;;;;3.00;3.00;;;;;11.00;65.24;102289.09;5015660;28;45569;-44
2021/11/20 04:27:48;;;;;;;;;3.00;3.00;;;;;10.99;65.25;102291.72;5002092;28;45244;-48
2021/11/20 04:30:16;;;;;;;;;3.50;2.25;;;;;10.97;65.41;102286.44;5000164;28;46764;-44
2021/11/20 04:32:42;;;;;;;;;1.75;1.75;;;;;10.96;65.37;102282.06;5001766;28;45319;-46
2021/11/20 04:35:11;;;;;;;;;7.50;6.50;;;;;10.96;65.29;102282.06;5001684;28;45418;-45
2021/11/20 04:37:36;;;;;;;;;2.00;2.00;;;;;10.94;65.27;102280.28;5001676;28;45236;-45
2021/11/20 04:40:04;;;;;;;;;4.75;4.00;;;;;10.93;65.35;102283.78;5001280;28;45675;-46
2021/11/20 04:42:30;;;;;;;;;6.25;4.50;;;;;10.91;65.28;102270.59;5000436;28;45413;-46
2021/11/20 04:44:55;;;;;;;;;5.00;3.75;;;;;10.91;65.38;102267.97;5016781;28;45438;-46
2021/11/20 04:47:21;;;;;;;;;4.00;4.00;;;;;10.90;65.39;102266.22;5000337;28;45454;-46
2021/11/20 04:49:47;;;;;;;;;6.50;3.75;;;;;10.89;65.45;102267.97;5000090;28;46102;-45
2021/11/20 04:52:14;;;;;;;;;3.00;3.00;;;;;10.89;65.38;102265.34;5000135;28;45405;-46
2021/11/20 04:54:40;;;;;;;;;4.00;4.00;;;;;10.88;65.39;102265.34;4996716;28;45312;-46
2021/11/20 04:57:06;;;;;;;;;3.25;3.25;;;;;10.88;65.22;102257.44;4993146;28;45347;-47
2021/11/20 04:59:32;;;;;;;;;3.50;3.00;;;;;10.87;65.41;102260.94;4999902;28;45271;-46
2021/11/20 05:01:58;;;;;;;;;8.00;6.75;;;;;10.87;65.57;102260.94;4999990;28;45304;-48
2021/11/20 05:04:23;;;;;;;;;5.00;4.50;;;;;10.85;65.43;102257.41;5001226;28;45518;-45
2021/11/20 05:06:49;;;;;;;;;6.50;5.50;;;;;10.84;65.32;102253.00;5001176;28;45378;-45
2021/11/20 05:09:14;;;;;;;;;5.00;5.00;;;;;10.85;65.38;102247.75;5000949;28;45501;-45
2021/11/20 05:11:40;;;;;;;;;5.25;4.00;;;;;10.86;65.45;102249.53;4999946;28;45348;-45
2021/11/20 05:14:05;;;;;;;;;7.75;7.25;;;;;10.86;65.33;102243.41;5001151;28;45482;-47
2021/11/20 05:16:30;;;;;;;;;5.50;5.00;;;;;10.87;65.25;102242.53;4999881;28;45479;-46
2021/11/20 05:18:56;;;;;;;;;7.75;7.00;;;;;10.87;65.61;102242.53;5000763;28;46066;-44
2021/11/20 05:21:23;;;;;;;;;7.00;6.50;;;;;10.87;65.30;102245.16;5000820;28;45276;-44
2021/11/20 05:23:50;;;;;;;;;9.00;6.00;;;;;10.87;65.35;102239.91;4999729;28;45324;-47
2021/11/20 05:26:17;;;;;;;;;1.00;1.00;;;;;10.87;65.29;102246.03;5000898;28;45310;-48
2021/11/20 05:28:47;;;;;;;;;6.75;4.00;;;;;10.86;65.31;102241.63;5000353;28;46057;-45
2021/11/20 05:31:13;;;;;;;;;8.25;6.00;;;;;10.87;65.32;102237.28;5000813;28;45371;-47
2021/11/20 05:33:45;;;;;;;;;5.25;5.00;;;;;10.88;65.21;102237.28;4999636;28;45399;-45
2021/11/20 05:36:12;;;;;;;;;6.00;5.00;;;;;10.87;65.51;102232.00;4999259;28;45439;-48
2021/11/20 05:38:38;;;;;;;;;8.00;7.00;;;;;10.88;65.37;102229.38;5000413;28;45392;-48
2021/11/20 05:41:05;;;;;;;;;6.25;6.25;;;;;10.86;65.54;102220.59;5000629;28;45336;-46
2021/11/20 05:43:30;;;;;;;;;5.75;5.00;;;;;10.87;65.40;102226.75;5000663;28;45463;-44
2021/11/20 05:45:59;;;;;;;;;8.00;6.00;;;;;10.84;65.41;102224.97;5000660;28;45473;-46
2021/11/20 05:48:25;;;;;;;;;6.25;6.25;;;;;10.87;65.44;102224.13;5000386;28;46309;-45
2021/11/20 05:50:51;;;;;;;;;9.00;6.00;;;;;10.86;65.44;102230.25;5000234;28;45514;-46
2021/11/20 05:53:20;;;;;;;;;9.25;8.00;;;;;10.87;65.47;102237.28;5000537;28;45353;-46
2021/11/20 05:55:47;;;;;;;;;5.50;5.00;;;;;10.86;65.53;102240.75;5000374;28;45206;-46
2021/11/20 05:58:14;;;;;;;;;5.50;4.25;;;;;10.86;65.50;102240.75;4987331;28;46249;-47
2021/11/20 06:00:43;;;;;;;;;6.00;6.00;;;;;10.85;65.45;102239.00;5000212;28;45332;-48
2021/11/20 06:03:09;;;;;;;;;5.50;4.00;;;;;10.82;65.65;102242.47;5000369;28;45374;-47
2021/11/20 06:05:36;;;;;;;;;7.00;6.25;;;;;10.80;65.57;102225.78;4999972;28;45209;-49
2021/11/20 06:08:01;;;;;;;;;9.50;8.50;;;;;10.82;65.36;102226.69;4999149;28;45363;-46
2021/11/20 06:10:27;;;;;;;;;7.25;4.25;;;;;10.78;65.45;102224.03;5000034;28;45223;-46
2021/11/20 06:12:53;;;;;;;;;7.00;7.00;;;;;10.80;65.58;102224.94;5000489;28;45329;-50
2021/11/20 06:15:19;;;;;;;;;8.25;6.00;;;;;10.79;65.51;102237.22;4999978;28;45422;-45
2021/11/20 06:17:45;;;;;;;;;6.50;4.75;;;;;10.79;65.67;102237.22;4998955;28;45387;-47
2021/11/20 06:20:12;;;;;;;;;9.00;9.00;;;;;10.79;65.69;102228.41;5000225;28;45355;-48
2021/11/20 06:22:37;;;;;;;;;9.00;7.25;;;;;10.77;65.62;102230.13;5000338;28;45411;-47
2021/11/20 06:25:07;;;;;;;;;8.25;7.00;;;;;10.78;65.63;102226.66;5013823;28;45447;-45
2021/11/20 06:27:32;;;;;;;;;10.50;10.00;;;;;10.77;65.59;102231.03;5000133;28;45268;-44
2021/11/20 06:29:57;;;;;;;;;9.00;7.25;;;;;10.76;65.49;102234.53;5000015;28;45228;-48
2021/11/20 06:32:23;;;;;;;;;9.00;6.25;;;;;10.72;65.66;102238.00;5000111;28;45215;-45
2021/11/20 06:34:49;;;;;;;;;9.00;9.00;;;;;10.71;65.71;102245.00;4999970;28;45458;-45
2021/11/20 06:37:14;;;;;;;;;10.00;8.50;;;;;10.71;65.59;102233.63;4998482;28;47211;-46
2021/11/20 06:39:40;;;;;;;;;10.25;8.00;;;;;10.70;65.79;102229.22;4999762;28;45300;-44
2021/11/20 06:42:06;;;;;;;;;7.75;7.00;;;;;10.70;65.64;102232.75;5003606;28;45499;-44
2021/11/20 06:44:33;;;;;;;;;10.00;9.00;;;;;10.69;65.58;102233.59;5003344;28;45494;-44
2021/11/20 06:46:59;;;;;;;;;12.75;12.25;;;;;10.69;65.59;102232.72;5003366;28;46273;-46
2021/11/20 06:49:24;;;;;;;;;9.25;8.50;;;;;10.61;65.54;102219.50;4999811;28;45245;-49
2021/11/20 06:51:50;;;;;;;;;10.50;9.00;;;;;10.62;65.72;102230.91;5003365;28;45428;-45
2021/11/20 06:54:17;;;;;;;;;8.25;7.25;;;;;10.60;65.70;102223.00;5003026;28;45520;-45
2021/11/20 06:56:43;;;;;;;;;7.25;6.50;;;;;10.62;65.69;102221.25;5001783;28;47754;-48
2021/11/20 06:59:19;;;;;;;;;14.00;13.50;;;;;10.61;65.77;102216.00;5002938;28;45487;-46
2021/11/20 07:01:46;;;;;;;;;12.00;9.50;;;;;10.60;65.85;102215.09;5003161;28;45369;-46
2021/11/20 07:04:24;;;;;;;;;9.50;8.00;;;;;10.59;65.84;102209.84;5002852;28;45277;-49
2021/11/20 07:06:53;;;;;;;;;16.50;14.00;;;;;10.60;65.66;102206.34;5002759;28;45332;-45
2021/11/20 07:09:20;;;;;;;;;9.50;7.50;;;;;10.59;65.72;102210.75;5002749;28;45289;-45
2021/11/20 07:11:46;;;;;;;;;8.00;8.00;;;;;10.59;65.89;102207.22;5003080;28;45383;-44
2021/11/20 07:14:12;;;;;;;;;15.25;13.00;;;;;10.58;65.85;102208.97;5002683;28;45430;-44
2021/11/20 07:16:38;;;;;;;;;11.50;9.00;;;;;10.56;65.76;102205.44;5006989;28;46291;-45
2021/11/20 07:19:05;;;;;;;;;12.75;11.25;;;;;10.57;65.79;102212.47;5005256;28;45364;-45
2021/11/20 07:21:30;;;;;;;;;12.50;11.75;;;;;10.55;65.87;102208.94;5002819;28;45288;-45
2021/11/20 07:23:59;;;;;;;;;7.25;6.75;;;;;10.57;65.70;102209.84;5002541;28;45612;-48
2021/11/20 07:26:25;;;;;;;;;10.00;8.50;;;;;10.58;65.67;102206.34;5002861;28;45400;-49
2021/11/20 07:28:51;;;;;;;;;9.00;8.25;;;;;10.59;65.79;102207.22;5002524;28;45480;-46
2021/11/20 07:31:18;;;;;;;;;9.75;7.25;;;;;10.59;65.68;102209.84;5002788;28;45358;-45
2021/11/20 07:33:43;;;;;;;;;12.50;9.00;;;;;10.58;65.65;102206.34;5002405;28;45281;-48
2021/11/20 07:36:11;;;;;;;;;10.25;8.75;;;;;10.58;65.50;102216.84;5000975;28;48266;-48
2021/11/20 07:38:40;;;;;;;;;8.75;8.00;;;;;10.59;65.78;102215.09;5002532;28;45178;-47
2021/11/20 07:41:07;;;;;;;;;14.50;11.25;;;;;10.59;65.73;102222.97;5002512;28;45435;-46
2021/11/20 07:43:33;;;;;;;;;8.50;7.00;;;;;10.58;65.74;102214.22;5002470;28;45364;-45
2021/11/20 07:45:58;;;;;;;;;10.00;8.50;;;;;10.56;65.71;102215.94;5002298;28;46112;-45
2021/11/20 07:48:26;;;;;;;;;14.25;13.00;;;;;10.58;65.92;102219.50;5002178;28;45332;-45
2021/11/20 07:50:53;;;;;;;;;7.75;7.25;;;;;10.59;65.78;102228.25;5002142;28;45265;-46
2021/11/20 07:53:19;;;;;;;;;4.50;4.00;;;;;10.57;65.68;102223.84;5001253;28;45322;-46
2021/11/20 07:55:46;;;;;;;;;11.25;10.50;;;;;10.57;65.84;102223.84;5001980;28;46461;-45
2021/11/20 07:58:12;;;;;;;;;8.25;8.25;;;;;10.58;65.73;102230.00;5002242;28;45414;-47
2021/11/20 08:00:39;;;;;;;;;10.50;9.00;;;;;10.59;65.82;102238.75;5002188;28;45343;-46
2021/11/20 08:03:06;;;;;;;;;14.50;11.00;;;;;10.57;65.66;102222.97;5001969;28;45447;-45
2021/11/20 08:05:31;;;;;;;;;8.75;8.25;;;;;10.56;65.89;102215.94;5001997;28;45268;-44
2021/11/20 08:07:57;;;;;;;;;11.50;8.00;;;;;10.59;65.67;102223.88;5001978;28;45229;-49
2021/11/20 08:10:24;;;;;;;;;9.75;9.25;;;;;10.60;65.88;102227.38;5002019;28;45241;-48
2021/11/20 08:12:50;;;;;;;;;16.00;12.25;;;;;10.60;65.41;102228.25;5001921;28;45474;-45
2021/11/20 08:15:16;;;;;;;;;15.00;13.50;;;;;10.61;65.85;102224.75;5001781;28;45308;-46
2021/11/20 08:17:42;;;;;;;;;11.75;11.00;;;;;10.60;65.74;102228.25;4997150;28;45975;-49
2021/11/20 08:20:10;;;;;;;;;7.75;7.75;;;;;10.62;65.81;102229.16;4994781;28;45271;-45
2021/11/20 08:22:37;;;;;;;;;16.25;13.25;;;;;10.62;65.73;102223.91;5001798;28;45177;-47
2021/11/20 08:25:04;;;;;;;;;16.75;14.50;;;;;10.62;65.89;102215.13;5001512;28;46255;-49
2021/11/20 08:27:30;;;;;;;;;22.50;17.00;;;;;10.63;65.71;102217.78;5001838;28;45448;-45
2021/11/20 08:29:55;;;;;;;;;17.25;14.75;;;;;10.63;65.98;102211.63;5001885;28;45318;-47
2021/11/20 08:32:22;;;;;;;;;12.50;12.00;;;;;10.64;65.93;102205.50;5001487;28;45345;-46
2021/11/20 08:34:48;;;;;;;;;18.25;16.00;;;;;10.63;65.72;102204.63;5001673;28;47067;-52
2021/11/20 08:37:14;;;;;;;;;21.50;16.75;;;;;10.63;65.93;102209.88;5001076;28;45500;-49
2021/11/20 08:39:40;;;;;;;;;17.50;16.50;;;;;10.64;65.86;102206.41;5001520;28;45501;-47
2021/11/20 08:42:05;;;;;;;;;18.00;15.25;;;;;10.65;65.80;102205.50;5001490;28;45247;-47
2021/11/20 08:44:31;;;;;;;;;21.25;18.00;;;;;10.65;65.76;102202.00;5001439;28;46159;-47
2021/11/20 08:46:57;;;;;;;;;20.75;19.00;;;;;10.63;65.68;102186.22;5001552;28;45304;-46
2021/11/20 08:49:23;;;;;;;;;23.25;18.75;;;;;10.63;65.78;102186.22;5001856;28;45209;-44
2021/11/20 08:51:52;;;;;;;;;28.50;27.25;;;;;10.66;65.81;102178.34;5001253;28;45513;-45
2021/11/20 08:54:17;;;;;;;;;18.00;17.75;;;;;10.67;65.77;102187.13;5000978;28;46382;-44
2021/11/20 08:56:44;;;;;;;;;22.75;21.75;;;;;10.65;65.85;102176.59;5001238;28;45303;-47
2021/11/20 08:59:13;;;;;;;;;21.50;19.25;;;;;10.66;65.77;102173.09;5001425;28;45227;-44
2021/11/20 09:01:53;;;;;;;;;21.75;21.00;;;;;10.67;65.86;102174.88;5001052;28;45186;-46
2021/11/20 09:04:28;;;;;;;;;15.00;14.75;;;;;10.67;65.94;102172.22;5000475;28;46508;-46
2021/11/20 09:07:05;;;;;;;;;16.25;13.75;;;;;10.68;65.84;102163.47;5000841;28;45395;-45
2021/11/20 09:09:48;;;;;;;;;17.25;15.50;;;;;10.69;65.88;102166.97;5001075;28;45412;-47
2021/11/20 09:12:21;;;;;;;;;16.25;14.25;;;;;10.69;65.88;102165.25;5000845;28;45301;-50
2021/11/20 09:14:55;;;;;;;;;19.25;17.00;;;;;10.69;65.78;102165.25;5001024;28;45316;-46
2021/11/20 09:17:21;;;;;;;;;26.50;21.75;;;;;10.71;65.86;102165.25;4999327;28;45529;-45
2021/11/20 09:19:48;;;;;;;;;17.50;16.75;;;;;10.70;65.89;102156.50;4999786;28;45324;-49
2021/11/20 09:22:15;;;;;;;;;18.75;17.75;;;;;10.72;65.95;102164.41;5000519;28;45265;-45
2021/11/20 09:24:42;;;;;;;;;23.75;15.75;;;;;10.72;65.83;102162.63;5000742;28;45266;-46
2021/11/20 09:27:10;;;;;;;;;16.50;15.75;;;;;10.73;65.71;102167.03;5000671;28;45225;-45
2021/11/20 09:29:36;;;;;;;;;20.00;17.00;;;;;10.73;65.77;102161.78;5001063;28;45331;-46
2021/11/20 09:32:03;;;;;;;;;17.50;16.00;;;;;10.72;66.02;102152.13;5000634;28;45796;-48
2021/11/20 09:34:28;;;;;;;;;18.00;17.00;;;;;10.75;65.76;102156.50;5000681;28;45260;-46
2021/11/20 09:36:57;;;;;;;;;18.25;17.50;;;;;10.77;65.71;102148.63;5000238;28;45298;-46
2021/11/20 09:39:26;;;;;;;;;28.50;21.75;;;;;10.77;65.72;102149.53;5000718;28;45245;-44
2021/11/20 09:42:00;;;;;;;;;17.50;15.50;;;;;10.78;65.91;102148.66;5000444;28;45249;-45
2021/11/20 09:44:26;;;;;;;;;17.00;15.75;;;;;10.77;66.03;102148.63;5000567;28;46176;-45
2021/11/20 09:46:56;;;;;;;;;15.25;15.25;;;;;10.78;66.04;102146.03;5000313;28;45327;-45
2021/11/20 09:49:35;;;;;;;;;15.75;14.00;;;;;10.79;65.73;102139.00;5000745;28;45241;-47
2021/11/20 09:52:03;;;;;;;;;17.75;16.00;;;;;10.80;65.86;102143.41;4999013;28;45830;-49
2021/11/20 09:54:35;;;;;;;;;21.50;18.25;;;;;10.81;65.97;102142.53;4998749;28;46147;-46
2021/11/20 09:57:10;;;;;;;;;21.50;19.25;;;;;10.81;65.77;102140.78;5000507;28;45407;-46
2021/11/20 09:59:59;;;;;;;;;16.50;16.00;;;;;10.82;65.83;102134.66;5000286;28;45431;-48
2021/11/20 10:02:28;;;;;;;;;24.25;19.25;;;;;10.83;65.99;102131.16;5000035;28;45383;-48
2021/11/20 10:05:14;;;;;;;;;22.00;19.00;;;;;10.85;65.91;102129.41;5000171;28;45254;-48
2021/11/20 10:07:46;;;;;;;;;27.75;26.25;;;;;10.87;65.73;102124.19;5000130;28;45416;-47
2021/11/20 10:10:15;;;;;;;;;22.25;19.50;;;;;10.87;65.92;102132.06;5000146;28;45265;-44
2021/11/20 10:12:53;;;;;;;;;24.25;18.50;;;;;10.86;65.92;102117.16;5000140;28;45339;-47
2021/11/20 10:15:24;;;;;;;;;16.25;16.25;;;;;10.89;65.77;102127.69;4999068;28;46415;-50
2021/11/20 10:18:13;;;;;;;;;20.50;18.75;;;;;10.89;65.83;102119.78;4999335;28;45530;-46
2021/11/20 10:20:46;;;;;;;;;25.25;19.50;;;;;10.89;65.84;102112.81;4999753;28;45602;-47
2021/11/20 10:23:47;;;;;;;;;25.00;20.75;;;;;10.89;65.82;102109.28;5000138;28;45300;-47
2021/11/20 10:26:24;;;;;;;;;20.25;18.00;;;;;10.90;65.81;102116.28;4999870;28;46315;-47
2021/11/20 10:29:17;;;;;;;;;20.00;18.25;;;;;10.90;65.82;102105.78;4999843;28;45375;-47
2021/11/20 10:31:50;;;;;;;;;17.00;16.75;;;;;10.87;65.99;102098.75;5000084;28;45366;-45
2021/11/20 10:34:32;;;;;;;;;22.00;19.50;;;;;10.92;65.80;102103.16;4999969;28;45362;-47
2021/11/20 10:37:14;;;;;;;;;22.75;19.00;;;;;10.91;65.83;102097.03;4999367;28;48364;-46
2021/11/20 10:39:45;;;;;;;;;24.25;21.00;;;;;10.90;65.93;102087.38;4999822;28;45336;-45
2021/11/20 10:42:18;;;;;;;;;24.25;24.00;;;;;10.93;65.84;102087.41;5000176;28;45286;-47
2021/11/20 10:44:55;;;;;;;;;29.75;27.00;;;;;10.93;65.87;102084.78;4998518;28;45361;-48
2021/11/20 10:47:31;;;;;;;;;22.50;19.50;;;;;10.93;66.08;102084.78;4999857;28;47273;-44
2021/11/20 10:50:14;;;;;;;;;15.50;15.50;;;;;10.93;65.95;102079.50;4999636;28;45220;-51
2021/11/20 10:52:44;;;;;;;;;19.75;19.00;;;;;10.92;65.76;102077.75;4999870;28;45451;-51
2021/11/20 10:55:20;;;;;;;;;26.25;20.75;;;;;10.92;65.96;102075.13;4999711;28;45360;-48
2021/11/20 10:58:16;;;;;;;;;23.00;20.50;;;;;10.93;65.73;102063.72;4999434;28;45908;-48
2021/11/20 11:01:12;;;;;;;;;24.25;23.00;;;;;10.94;65.94;102052.31;4999589;28;45343;-48
2021/11/20 11:03:39;;;;;;;;;27.75;26.75;;;;;10.92;65.86;102040.94;4999657;28;45403;-48
2021/11/20 11:06:36;;;;;;;;;22.75;19.75;;;;;10.94;65.58;102035.66;4999424;28;45331;-49
2021/11/20 11:09:16;;;;;;;;;24.25;19.75;;;;;10.93;65.74;102037.44;4999135;28;45558;-47
2021/11/20 11:11:55;;;;;;;;;26.00;21.00;;;;;10.93;65.91;102037.44;4998137;28;45272;-47
2021/11/20 11:14:44;;;;;;;;;26.00;21.25;;;;;10.95;65.75;102030.41;4999492;28;45378;-46
2021/11/20 11:17:28;;;;;;;;;21.50;17.50;;;;;10.96;65.94;102032.16;4999235;28;45248;-50
2021/11/20 11:20:17;;;;;;;;;25.50;19.50;;;;;10.95;65.80;102027.78;4999506;28;45244;-49
2021/11/20 11:22:53;;;;;;;;;31.75;17.50;;;;;10.95;65.83;102019.88;4999364;28;45580;-49
2021/11/20 11:25:23;;;;;;;;;25.25;18.00;;;;;10.96;65.98;102018.16;4999277;28;45415;-44